createdAt,value
2023-05-09T00:01:40.365Z,19.43
2023-05-09T00:04:44.604Z,19.16
2023-05-09T00:07:51.350Z,19.73
2023-05-09T00:10:55.473Z,19.71
2023-05-09T00:14:01.956Z,19.84
2023-05-09T00:17:06.379Z,19.41
2023-05-09T00:20:12.915Z,20.03
2023-05-09T00:23:17.681Z,21.30
2023-05-09T00:26:24.221Z,21.76
2023-05-09T00:29:30.058Z,21.36
2023-05-09T00:32:35.523Z,21.47
2023-05-09T00:35:40.109Z,20.31
2023-05-09T00:38:44.724Z,17.96
2023-05-09T00:41:52.059Z,17.82
2023-05-09T00:44:56.249Z,17.27
2023-05-09T00:48:00.627Z,16.22
2023-05-09T00:51:05.646Z,15.94
2023-05-09T00:54:11.128Z,15.18
2023-05-09T00:57:14.821Z,14.56
2023-05-09T01:00:19.872Z,14.17
2023-05-09T01:08:49.233Z,13.77
2023-05-09T01:12:14.431Z,13.99
2023-05-09T01:15:43.449Z,14.65
2023-05-09T01:19:12.029Z,15.46
2023-05-09T01:25:59.634Z,18.57
2023-05-09T01:29:36.263Z,17.88
2023-05-09T01:33:13.912Z,15.29
2023-05-09T01:36:44.829Z,13.91
2023-05-09T01:40:12.122Z,14.02
2023-05-09T01:43:20.905Z,13.88
2023-05-09T01:46:31.467Z,14.00
2023-05-09T01:49:41.308Z,13.44
2023-05-09T01:53:06.118Z,13.15
2023-05-09T01:56:20.450Z,12.96
2023-05-09T01:59:29.464Z,13.44
2023-05-09T02:02:45.091Z,13.41
2023-05-09T02:06:00.706Z,13.22
2023-05-09T02:09:08.376Z,12.68
2023-05-09T02:12:14.946Z,13.28
2023-05-09T02:15:21.192Z,13.25
2023-05-09T02:18:42.358Z,13.48
2023-05-09T02:26:15.081Z,13.40
2023-05-09T02:29:39.477Z,13.58
2023-05-09T02:33:37.703Z,14.47
2023-05-09T02:41:02.169Z,14.83
2023-05-09T02:44:20.464Z,14.36
2023-05-09T02:47:26.365Z,15.82
2023-05-09T02:50:35.150Z,15.42
2023-05-09T02:53:54.199Z,14.67
2023-05-09T02:57:08.066Z,14.64
2023-05-09T03:00:17.848Z,15.00
2023-05-09T03:03:25.324Z,16.14
2023-05-09T03:06:29.659Z,15.29
2023-05-09T03:09:44.310Z,14.20
2023-05-09T03:13:14.465Z,15.60
2023-05-09T03:16:23.699Z,15.52
2023-05-09T03:19:39.512Z,15.15
2023-05-09T03:22:55.839Z,14.26
2023-05-09T03:26:10.219Z,14.09
2023-05-09T03:29:16.172Z,15.75
2023-05-09T03:32:27.545Z,15.84
2023-05-09T03:35:58.104Z,14.59
2023-05-09T03:39:10.961Z,14.94
2023-05-09T03:42:18.388Z,15.57
2023-05-09T03:45:36.929Z,15.15
2023-05-09T03:48:49.641Z,15.26
2023-05-09T03:52:12.439Z,15.26
2023-05-09T03:55:24.795Z,15.40
2023-05-09T03:58:41.189Z,14.97
2023-05-09T04:01:50.690Z,15.10
2023-05-09T04:05:02.819Z,15.53
2023-05-09T04:08:25.093Z,15.11
2023-05-09T04:11:46.672Z,13.39
2023-05-09T04:14:59.545Z,13.68
2023-05-09T04:18:04.085Z,14.24
2023-05-09T04:21:09.362Z,13.67
2023-05-09T04:24:16.519Z,13.91
2023-05-09T04:27:24.707Z,14.04
2023-05-09T04:30:38.300Z,13.57
2023-05-09T04:33:42.633Z,13.42
2023-05-09T04:36:47.079Z,14.76
2023-05-09T04:39:54.617Z,15.17
2023-05-09T04:43:04.977Z,14.79
2023-05-09T04:46:09.271Z,14.70
2023-05-09T04:49:16.782Z,13.77
2023-05-09T04:52:20.748Z,14.38
2023-05-09T04:55:36.389Z,14.24
2023-05-09T04:58:42.781Z,14.30
2023-05-09T05:01:47.757Z,14.24
2023-05-09T05:04:57.926Z,13.00
2023-05-09T05:08:09.770Z,12.99
2023-05-09T05:11:18.765Z,13.22
2023-05-09T05:14:23.746Z,13.18
2023-05-09T05:17:45.200Z,13.42
2023-05-09T05:21:05.308Z,11.97
2023-05-09T05:24:15.036Z,12.14
2023-05-09T05:27:22.828Z,12.10
2023-05-09T05:30:34.337Z,12.78
2023-05-09T05:33:39.573Z,12.20
2023-05-09T05:36:44.877Z,11.18
2023-05-09T05:39:52.376Z,11.28
2023-05-09T05:42:56.748Z,11.32
2023-05-09T05:46:06.668Z,11.69
2023-05-09T05:49:18.839Z,12.05
2023-05-09T05:52:24.215Z,12.05
2023-05-09T05:55:28.507Z,11.76
2023-05-09T05:58:35.942Z,11.54
2023-05-09T06:02:11.440Z,11.42
2023-05-09T06:05:16.756Z,12.39
2023-05-09T06:08:49.941Z,12.31
2023-05-09T06:12:09.996Z,12.08
2023-05-09T06:15:20.208Z,12.65
2023-05-09T06:22:11.205Z,11.23
2023-05-09T06:25:17.834Z,11.74
2023-05-09T06:28:24.853Z,11.75
2023-05-09T06:31:31.227Z,11.71
2023-05-09T06:34:35.369Z,11.04
2023-05-09T06:37:41.518Z,10.34
2023-05-09T06:40:45.554Z,9.93
2023-05-09T06:43:49.999Z,10.32
2023-05-09T06:46:55.442Z,11.24
2023-05-09T06:49:59.364Z,11.27
2023-05-09T06:53:03.683Z,11.61
2023-05-09T06:56:07.787Z,11.84
2023-05-09T06:59:17.435Z,11.90
2023-05-09T07:02:21.423Z,12.13
2023-05-09T07:05:25.620Z,11.70
2023-05-09T07:08:29.765Z,11.42
2023-05-09T07:11:39.603Z,11.84
2023-05-09T07:14:43.525Z,11.31
2023-05-09T07:17:50.506Z,11.02
2023-05-09T07:20:54.479Z,11.42
2023-05-09T07:24:28.446Z,10.38
2023-05-09T07:27:39.354Z,11.35
2023-05-09T07:30:48.948Z,10.65
2023-05-09T07:34:02.091Z,10.83
2023-05-09T07:37:13.723Z,10.42
2023-05-09T07:40:51.428Z,10.63
2023-05-09T07:48:53.214Z,10.85
2023-05-09T07:51:58.433Z,10.73
2023-05-09T07:55:06.750Z,10.86
2023-05-09T07:58:14.134Z,10.41
2023-05-09T08:01:31.630Z,10.31
2023-05-09T08:04:40.079Z,9.82
2023-05-09T08:07:48.824Z,9.53
2023-05-09T08:11:07.147Z,9.49
2023-05-09T08:14:29.498Z,9.68
2023-05-09T08:17:44.392Z,9.26
2023-05-09T08:20:50.161Z,9.03
2023-05-09T08:23:55.528Z,9.34
2023-05-09T08:27:02.628Z,9.77
2023-05-09T08:30:12.607Z,9.69
2023-05-09T08:33:18.897Z,10.08
2023-05-09T08:36:24.095Z,9.98
2023-05-09T08:39:28.087Z,9.97
2023-05-09T08:42:36.391Z,9.38
2023-05-09T08:45:53.367Z,9.26
2023-05-09T08:48:59.228Z,9.31
2023-05-09T08:52:06.416Z,9.65
2023-05-09T08:55:13.763Z,9.53
2023-05-09T08:58:21.789Z,9.92
2023-05-09T09:01:27.909Z,9.66
2023-05-09T09:04:33.709Z,9.83
2023-05-09T09:07:42.632Z,9.87
2023-05-09T09:10:49.949Z,9.92
2023-05-09T09:14:03.218Z,9.74
2023-05-09T09:17:09.741Z,9.39
2023-05-09T09:20:15.833Z,9.75
2023-05-09T09:23:21.751Z,9.54
2023-05-09T09:26:25.918Z,9.40
2023-05-09T09:29:41.897Z,9.26
2023-05-09T09:32:46.697Z,9.32
2023-05-09T09:35:54.526Z,9.34
2023-05-09T09:39:06.018Z,9.07
2023-05-09T09:42:28.660Z,9.10
2023-05-09T09:45:35.559Z,8.62
2023-05-09T09:48:40.312Z,9.11
2023-05-09T09:51:45.484Z,8.97
2023-05-09T09:54:50.489Z,8.82
2023-05-09T09:57:54.906Z,8.43
2023-05-09T10:01:14.681Z,8.51
2023-05-09T10:04:18.833Z,8.92
2023-05-09T10:07:26.335Z,8.88
2023-05-09T10:10:32.526Z,8.72
2023-05-09T10:13:39.457Z,8.52
2023-05-09T10:16:47.976Z,8.42
2023-05-09T10:19:53.488Z,8.31
2023-05-09T10:23:01.363Z,8.39
2023-05-09T10:26:09.118Z,8.01
2023-05-09T10:29:21.956Z,7.97
2023-05-09T10:32:34.479Z,7.66
2023-05-09T10:35:45.884Z,7.70
2023-05-09T10:38:51.160Z,7.65
2023-05-09T10:41:56.128Z,7.79
2023-05-09T10:45:00.273Z,7.76
2023-05-09T10:48:09.537Z,7.77
2023-05-09T10:51:14.236Z,7.74
2023-05-09T10:54:30.884Z,7.68
2023-05-09T10:57:40.880Z,7.72
2023-05-09T11:00:45.234Z,7.64
2023-05-09T11:04:00.784Z,7.74
2023-05-09T11:07:07.858Z,7.59
2023-05-09T11:10:18.542Z,7.57
2023-05-09T11:13:25.598Z,7.59
2023-05-09T11:17:02.369Z,7.35
2023-05-09T11:20:07.692Z,7.34
2023-05-09T11:23:18.163Z,7.33
2023-05-09T11:26:24.547Z,7.27
2023-05-09T11:29:29.113Z,7.32
2023-05-09T11:32:35.106Z,7.30
2023-05-09T11:35:48.362Z,7.22
2023-05-09T11:39:12.301Z,7.23
2023-05-09T11:42:18.445Z,7.17
2023-05-09T11:45:27.145Z,7.22
2023-05-09T11:48:31.511Z,7.27
2023-05-09T11:51:41.432Z,7.39
2023-05-09T11:54:46.680Z,7.33
2023-05-09T11:57:53.251Z,7.36
2023-05-09T12:00:59.944Z,7.38
2023-05-09T12:04:04.632Z,7.36
2023-05-09T12:07:08.616Z,7.32
2023-05-09T12:10:18.981Z,7.37
2023-05-09T12:13:23.636Z,7.19
2023-05-09T12:16:27.680Z,7.21
2023-05-09T12:19:32.042Z,7.08
2023-05-09T12:22:38.400Z,7.23
2023-05-09T12:26:03.596Z,7.01
2023-05-09T12:29:09.436Z,7.04
2023-05-09T12:32:14.237Z,6.75
2023-05-09T12:35:24.361Z,6.91
2023-05-09T12:38:31.897Z,6.45
2023-05-09T12:42:18.115Z,6.56
2023-05-09T12:45:28.749Z,6.07
2023-05-09T12:48:42.322Z,6.91
2023-05-09T12:51:51.122Z,7.23
2023-05-09T12:54:57.060Z,7.16
2023-05-09T12:58:05.065Z,7.15
2023-05-09T13:01:12.519Z,7.08
2023-05-09T13:04:22.125Z,7.00
2023-05-09T13:07:28.384Z,7.28
2023-05-09T13:10:39.279Z,7.18
2023-05-09T13:13:50.382Z,7.31
2023-05-09T13:16:54.853Z,7.25
2023-05-09T13:19:59.016Z,7.34
2023-05-09T13:23:09.231Z,7.34
2023-05-09T13:26:15.862Z,7.33
2023-05-09T13:29:27.581Z,7.18
2023-05-09T13:32:32.592Z,7.05
2023-05-09T13:35:36.788Z,7.30
2023-05-09T13:38:46.321Z,7.15
2023-05-09T13:41:52.248Z,6.97
2023-05-09T13:44:59.786Z,7.30
2023-05-09T13:48:06.706Z,7.04
2023-05-09T13:51:16.565Z,6.96
2023-05-09T13:54:25.540Z,6.83
2023-05-09T13:57:31.110Z,6.61
2023-05-09T14:00:35.486Z,6.64
2023-05-09T14:03:39.718Z,6.34
2023-05-09T14:06:49.077Z,6.54
2023-05-09T14:10:10.577Z,6.69
2023-05-09T14:13:17.876Z,6.43
2023-05-09T14:16:22.905Z,6.39
2023-05-09T14:19:28.085Z,6.71
2023-05-09T14:22:34.612Z,6.33
2023-05-09T14:26:06.972Z,6.93
2023-05-09T14:51:40.301Z,6.87
2023-05-09T14:54:44.547Z,7.00
2023-05-09T14:57:48.393Z,6.62
2023-05-09T15:00:54.220Z,6.71
2023-05-09T15:03:57.960Z,6.51
2023-05-09T15:07:04.176Z,6.43
2023-05-09T15:10:09.954Z,6.46
2023-05-09T15:13:14.026Z,6.37
2023-05-09T15:16:17.898Z,6.76
2023-05-09T15:19:23.319Z,6.30
2023-05-09T15:22:27.357Z,6.56
2023-05-09T15:25:31.779Z,6.60
2023-05-09T15:28:39.404Z,6.69
2023-05-09T15:31:43.382Z,6.68
2023-05-09T15:34:47.959Z,6.56
2023-05-09T15:37:59.703Z,6.64
2023-05-09T15:41:06.269Z,6.29
2023-05-09T15:44:10.282Z,6.73
2023-05-09T15:47:14.659Z,6.90
2023-05-09T15:50:25.026Z,6.69
2023-05-09T15:53:29.784Z,6.76
2023-05-09T15:56:33.890Z,6.64
2023-05-09T15:59:40.762Z,6.65
2023-05-09T16:02:45.104Z,6.68
2023-05-09T16:05:51.776Z,6.61
2023-05-09T16:08:55.889Z,6.46
2023-05-09T16:12:04.870Z,6.14
2023-05-09T16:15:12.188Z,6.25
2023-05-09T16:18:19.583Z,6.16
2023-05-09T16:21:36.153Z,6.41
2023-05-09T16:24:40.468Z,6.27
2023-05-09T16:27:47.812Z,6.01
2023-05-09T16:31:01.547Z,6.05
2023-05-09T16:34:13.111Z,5.98
2023-05-09T16:37:20.375Z,6.07
2023-05-09T16:40:25.962Z,6.06
2023-05-09T16:43:32.109Z,5.90
2023-05-09T16:46:36.164Z,6.04
2023-05-09T16:49:42.316Z,6.01
2023-05-09T16:52:46.300Z,5.99
2023-05-09T16:55:51.170Z,6.27
2023-05-09T16:58:56.680Z,6.04
2023-05-09T17:02:03.309Z,5.88
2023-05-09T17:05:07.934Z,6.07
2023-05-09T17:08:12.228Z,5.94
2023-05-09T17:11:19.237Z,5.86
2023-05-09T17:14:23.286Z,5.68
2023-05-09T17:17:27.581Z,5.67
2023-05-09T17:20:40.569Z,5.61
2023-05-09T17:23:47.562Z,5.63
2023-05-09T17:26:51.667Z,5.56
2023-05-09T17:29:55.868Z,5.26
2023-05-09T17:32:59.876Z,5.60
2023-05-09T17:36:07.727Z,5.66
2023-05-09T17:39:12.443Z,5.58
2023-05-09T17:42:16.536Z,5.42
2023-05-09T17:45:26.257Z,5.19
2023-05-09T17:48:35.376Z,5.28
2023-05-09T17:51:40.990Z,5.22
2023-05-09T17:54:47.660Z,5.26
2023-05-09T17:58:12.952Z,4.47
2023-05-09T18:01:23.122Z,5.29
2023-05-09T18:04:30.963Z,5.01
2023-05-09T18:07:35.038Z,4.89
2023-05-09T18:10:39.216Z,4.19
2023-05-09T18:13:43.391Z,3.86
2023-05-09T18:16:47.725Z,3.84
2023-05-09T18:19:51.927Z,3.94
2023-05-09T18:22:58.925Z,4.29
2023-05-09T18:26:02.792Z,4.48
2023-05-09T18:29:10.299Z,4.59
2023-05-09T18:32:14.852Z,4.67
2023-05-09T18:35:18.973Z,4.75
2023-05-09T18:38:23.549Z,4.82
2023-05-09T18:41:29.730Z,4.90
2023-05-09T18:44:33.949Z,4.87
2023-05-09T18:47:38.642Z,4.76
2023-05-09T18:50:42.717Z,4.75
2023-05-09T18:53:51.123Z,4.95
2023-05-09T18:56:55.261Z,4.82
2023-05-09T19:00:01.373Z,3.73
2023-05-09T19:03:10.324Z,4.52
2023-05-09T19:06:15.978Z,4.59
2023-05-09T19:09:24.362Z,4.72
2023-05-09T19:12:34.986Z,4.31
2023-05-09T19:15:39.340Z,4.30
2023-05-09T19:18:46.387Z,4.38
2023-05-09T19:22:03.383Z,4.29
2023-05-09T19:25:07.738Z,3.74
2023-05-09T19:28:16.896Z,3.65
2023-05-09T19:31:25.846Z,3.63
2023-05-09T19:34:33.506Z,3.54
2023-05-09T19:37:49.814Z,3.38
2023-05-09T19:40:57.814Z,3.25
2023-05-09T19:44:06.230Z,3.11
2023-05-09T19:47:15.892Z,2.99
2023-05-09T19:50:37.825Z,3.14
2023-05-09T19:53:49.421Z,3.31
2023-05-09T19:57:07.290Z,3.03
2023-05-09T20:00:13.021Z,2.81
2023-05-09T20:03:25.432Z,3.07
2023-05-09T20:06:34.984Z,3.25
2023-05-09T20:09:40.258Z,3.19
2023-05-09T20:12:53.844Z,2.98
2023-05-09T20:16:03.515Z,2.78
2023-05-09T20:19:13.568Z,2.72
2023-05-09T20:22:21.712Z,2.95
2023-05-09T20:25:34.827Z,2.98
2023-05-09T20:28:55.292Z,3.17
2023-05-09T20:32:04.635Z,3.75
2023-05-09T20:35:12.242Z,4.22
2023-05-09T20:38:24.625Z,4.52
2023-05-09T20:41:34.465Z,4.47
2023-05-09T20:44:45.236Z,4.69
2023-05-09T20:47:52.541Z,4.83
2023-05-09T20:51:09.604Z,4.71
2023-05-09T20:54:26.169Z,4.91
2023-05-09T20:57:31.028Z,5.27
2023-05-09T21:00:41.886Z,5.54
2023-05-09T21:03:49.204Z,5.79
2023-05-09T21:06:54.103Z,5.91
2023-05-09T21:10:03.525Z,5.95
2023-05-09T21:13:08.644Z,5.84
2023-05-09T21:16:31.006Z,5.93
2023-05-09T21:19:35.430Z,5.99
2023-05-09T21:22:41.107Z,6.14
2023-05-09T21:25:53.148Z,6.44
2023-05-09T21:29:10.408Z,6.57
2023-05-09T21:32:29.279Z,6.27
2023-05-09T21:36:05.694Z,7.39
2023-05-09T21:40:21.409Z,8.76
2023-05-09T21:57:03.326Z,9.79
2023-05-09T22:00:22.335Z,12.29
2023-05-09T22:03:29.005Z,12.32
2023-05-09T22:06:40.190Z,12.81
2023-05-09T22:09:56.596Z,12.80
2023-05-09T22:13:12.715Z,13.36
2023-05-09T22:16:45.492Z,13.71
2023-05-09T22:20:07.901Z,13.13
2023-05-09T22:23:26.613Z,13.94
2023-05-09T22:26:36.498Z,15.72
2023-05-09T22:29:47.496Z,17.66
2023-05-09T22:33:41.500Z,17.36
2023-05-09T22:36:49.530Z,17.20
2023-05-09T22:39:57.437Z,18.16
2023-05-09T22:43:07.856Z,17.57
2023-05-09T22:46:16.202Z,17.38
2023-05-09T22:49:27.857Z,16.67
2023-05-09T22:52:42.442Z,16.51
2023-05-09T22:55:51.139Z,17.01
2023-05-09T22:59:08.514Z,17.14
2023-05-09T23:02:15.626Z,16.23
2023-05-09T23:05:26.835Z,16.41
2023-05-09T23:09:08.333Z,16.19
2023-05-09T23:11:58.152Z,15.55
2023-05-09T23:15:09.426Z,15.86
2023-05-09T23:18:39.357Z,14.53
2023-05-09T23:21:55.640Z,15.16
2023-05-09T23:25:02.338Z,16.35
2023-05-09T23:28:11.277Z,16.96
2023-05-09T23:31:23.044Z,17.72
2023-05-09T23:34:35.412Z,17.73
2023-05-09T23:38:15.839Z,16.15
2023-05-09T23:41:37.353Z,15.37
2023-05-09T23:44:59.310Z,16.49
2023-05-09T23:52:40.453Z,16.46
2023-05-09T23:56:04.431Z,15.96
2023-05-09T23:59:14.020Z,15.20
